Terminal Aerodrome Forecast
Issued by NWS Mt. Holly, NJ

Home | Current Version | Previous Version | Text Only | Print | Product List | Glossary On
Versions: 1 2 3 4 5 6 7 8 9 10 11 12 13 14 15 16 17 18 19 20 21 22 23
000
FTUS41 KPHI 020524
TAFACY
TAF
KACY 020524Z 0206/0306 VRB03KT 6SM BR VCSH SCT090 BKN120
      TEMPO 0207/0211 5SM BR
     FM021500 07006KT P6SM VCSH BKN050 BKN100
     FM021800 15005KT P6SM SHRA BKN050
     FM030100 VRB02KT P6SM SCT050 BKN150=

USA.gov is the U.S. government's official web portal to all federal, state and local government web resources and services.